Time,TemperatureF,DewpointF,PressureIn,WindDirection,WindDirectionDegrees,WindSpeedMPH,WindSpeedGustMPH,Humidity,HourlyPrecipIn,Conditions,Clouds,dailyrainin,SoftwareType,DateUTC
2014-10-31 00:02:00,39.0,28.7,29.98,North,0,0.0,0.0,65,0.00,,,0.00,te923tool + temaki,2014-10-31 06:02:00,
2014-10-31 00:07:00,39.0,28.7,29.98,NNE,22,0.2,1.8,65,0.00,,,0.00,te923tool + temaki,2014-10-31 06:07:00,
2014-10-31 00:12:00,39.0,28.7,29.98,NNE,18,0.7,1.8,65,0.00,,,0.00,te923tool + temaki,2014-10-31 06:12:00,
2014-10-31 00:17:00,38.7,28.4,29.98,ENE,57,1.0,0.0,65,0.00,,,0.00,te923tool + temaki,2014-10-31 06:17:00,
2014-10-31 00:22:00,38.7,28.4,29.98,NE,45,0.6,0.0,65,0.00,,,0.00,te923tool + temaki,2014-10-31 06:22:00,
2014-10-31 00:27:00,38.5,28.6,29.98,ENE,67,0.1,0.0,66,0.00,,,0.00,te923tool + temaki,2014-10-31 06:27:00,
2014-10-31 00:32:00,38.5,28.6,29.98,North,0,0.0,0.0,66,0.00,,,0.00,te923tool + temaki,2014-10-31 06:32:00,
2014-10-31 00:37:00,38.5,28.9,29.98,North,0,0.0,0.0,67,0.00,,,0.00,te923tool + temaki,2014-10-31 06:37:00,
2014-10-31 00:42:00,38.5,28.9,29.98,North,0,0.0,0.0,67,0.00,,,0.00,te923tool + temaki,2014-10-31 06:42:00,
2014-10-31 00:47:00,38.3,28.4,29.98,North,0,0.0,0.0,66,0.00,,,0.00,te923tool + temaki,2014-10-31 06:47:00,
2014-10-31 00:52:00,37.9,28.1,29.98,North,0,0.0,0.0,66,0.00,,,0.00,te923tool + temaki,2014-10-31 06:52:00,
2014-10-31 00:57:00,37.9,28.5,29.98,North,0,0.0,0.0,67,0.00,,,0.00,te923tool + temaki,2014-10-31 06:57:00,
2014-10-31 01:02:00,37.8,28.3,29.98,North,0,0.0,0.0,67,0.00,,,0.00,te923tool + temaki,2014-10-31 07:02:00,
2014-10-31 01:07:00,37.8,28.6,29.98,North,0,0.0,0.0,68,0.00,,,0.00,te923tool + temaki,2014-10-31 07:07:00,
2014-10-31 01:12:00,37.6,28.5,29.98,North,0,0.0,0.0,68,0.00,,,0.00,te923tool + temaki,2014-10-31 07:12:00,
2014-10-31 01:17:00,37.6,28.5,29.98,North,0,0.0,0.0,68,0.00,,,0.00,te923tool + temaki,2014-10-31 07:17:00,
2014-10-31 01:22:00,37.2,28.1,29.97,North,0,0.0,0.0,68,0.00,,,0.00,te923tool + temaki,2014-10-31 07:22:00,
2014-10-31 01:27:00,37.0,28.3,29.97,North,0,0.0,0.0,69,0.00,,,0.00,te923tool + temaki,2014-10-31 07:27:00,
2014-10-31 01:32:00,36.9,28.2,29.97,North,0,0.0,0.0,69,0.00,,,0.00,te923tool + temaki,2014-10-31 07:32:00,
2014-10-31 01:37:00,36.9,28.2,29.97,North,0,0.0,0.0,69,0.00,,,0.00,te923tool + temaki,2014-10-31 07:37:00,
2014-10-31 01:42:00,36.5,28.2,29.96,North,0,0.0,0.0,70,0.00,,,0.00,te923tool + temaki,2014-10-31 07:42:00,
2014-10-31 01:47:00,36.5,28.2,29.96,North,0,0.0,0.0,70,0.00,,,0.00,te923tool + temaki,2014-10-31 07:47:00,
2014-10-31 01:52:00,36.5,28.2,29.96,North,0,0.0,0.0,70,0.00,,,0.00,te923tool + temaki,2014-10-31 07:52:00,
2014-10-31 01:57:00,36.3,28.0,29.96,North,0,0.0,0.0,70,0.00,,,0.00,te923tool + temaki,2014-10-31 07:57:00,
2014-10-31 02:02:00,36.3,28.0,29.95,North,0,0.0,0.0,70,0.00,,,0.00,te923tool + temaki,2014-10-31 08:02:00,
2014-10-31 02:07:00,36.3,28.0,29.95,North,0,0.0,0.0,70,0.00,,,0.00,te923tool + temaki,2014-10-31 08:07:00,
2014-10-31 02:12:00,36.3,28.0,29.95,North,0,0.0,0.0,70,0.00,,,0.00,te923tool + temaki,2014-10-31 08:12:00,
2014-10-31 02:17:00,36.3,28.0,29.95,North,0,0.0,0.0,70,0.00,,,0.00,te923tool + temaki,2014-10-31 08:17:00,
2014-10-31 02:22:00,36.1,27.9,29.95,North,0,0.0,0.0,70,0.00,,,0.00,te923tool + temaki,2014-10-31 08:22:00,
2014-10-31 02:27:00,36.1,27.9,29.95,North,0,0.0,0.0,70,0.00,,,0.00,te923tool + temaki,2014-10-31 08:27:00,
2014-10-31 02:32:00,35.8,27.6,29.95,North,0,0.0,0.0,70,0.00,,,0.00,te923tool + temaki,2014-10-31 08:32:00,
2014-10-31 02:37:00,35.8,27.6,29.95,ENE,67,0.1,2.9,70,0.00,,,0.00,te923tool + temaki,2014-10-31 08:37:00,
2014-10-31 02:42:00,35.8,27.6,29.96,ENE,67,0.4,1.1,70,0.00,,,0.00,te923tool + temaki,2014-10-31 08:42:00,
2014-10-31 02:47:00,35.8,27.6,29.96,NNE,27,1.1,1.6,70,0.00,,,0.00,te923tool + temaki,2014-10-31 08:47:00,
2014-10-31 02:52:00,35.8,27.6,29.96,ENE,76,1.2,1.8,70,0.00,,,0.00,te923tool + temaki,2014-10-31 08:52:00,
2014-10-31 02:57:00,36.1,27.9,29.96,ENE,58,0.9,0.0,70,0.00,,,0.00,te923tool + temaki,2014-10-31 08:57:00,
2014-10-31 03:02:00,36.0,27.7,29.96,NW,319,0.6,0.0,70,0.00,,,0.00,te923tool + temaki,2014-10-31 09:02:00,
2014-10-31 03:07:00,36.1,27.9,29.96,WSW,247,0.4,0.0,70,0.00,,,0.00,te923tool + temaki,2014-10-31 09:07:00,
2014-10-31 03:12:00,35.6,27.4,29.96,SSW,202,0.3,0.0,70,0.00,,,0.00,te923tool + temaki,2014-10-31 09:12:00,
2014-10-31 03:17:00,35.8,27.6,29.96,WSW,247,0.0,0.0,70,0.00,,,0.00,te923tool + temaki,2014-10-31 09:17:00,
2014-10-31 03:22:00,35.6,27.4,29.95,North,0,0.0,0.0,70,0.00,,,0.00,te923tool + temaki,2014-10-31 09:22:00,
2014-10-31 03:27:00,35.4,27.6,29.95,North,0,0.0,0.0,71,0.00,,,0.00,te923tool + temaki,2014-10-31 09:27:00,